Mst-radomir — OMCU — position and weather

sailwx.info

Track history (hours):
 
Tides and Currents Weather Stations Pressure Air Temp Water Temp Dewpoint Dewpoint Depression Visibility Wind Speed Wind Dir Waves Ship Positions

Mst-radomir

Last reported at 2017-Oct-19 10:22 UTC. Time now 2017-Oct-20 16:15 UTC.
Position N 45°11' E 020°01'.

Length 187 m; draft 2.2 m.

Type: Cargo ship. MMSI: 267010006.

Date/timePositionNaut miles runAvg speedWind from/ knotsBaromVisibWave heightAir tempDewpointWater temp
2017-Oct-19 10:22N 45°11' E 020°01'4 3.1
2017-Oct-19 09:10N 45°10' E 020°06'0 2.9
2017-Oct-19 09:00N 45°10' E 020°06'2 2.7
2017-Oct-19 08:23N 45°11' E 020°09'1 3.2
2017-Oct-19 08:00N 45°11' E 020°10'1 2.9
2017-Oct-19 07:30N 45°11' E 020°12'1 3.0
2017-Oct-19 07:00N 45°10' E 020°14'2 3.1
2017-Oct-19 06:30N 45°09' E 020°16'2 3.1
2017-Oct-19 05:59N 45°07' E 020°17'2 3.4
2017-Oct-19 05:30N 45°06' E 020°18'2 3.1
2017-Oct-19 05:00N 45°05' E 020°19'1 2.8
2017-Oct-19 04:30N 45°04' E 020°21'0 0.1
2017-Oct-19 04:00N 45°04' E 020°21'0 0.0
2017-Oct-19 03:30N 45°04' E 020°21'0 0.0
2017-Oct-19 03:00N 45°04' E 020°21'0 0.0
2017-Oct-19 02:30N 45°04' E 020°21'0 0.0
2017-Oct-19 02:00N 45°04' E 020°21'0 0.0
2017-Oct-19 01:30N 45°04' E 020°21'0 0.0
2017-Oct-19 01:00N 45°04' E 020°21'0 0.0
2017-Oct-19 00:30N 45°04' E 020°21'0 0.0
2017-Oct-19 00:00N 45°04' E 020°21'0 0.0
2017-Oct-18 23:30N 45°04' E 020°21'0 0.0
2017-Oct-18 23:00N 45°04' E 020°21'0 0.0
2017-Oct-18 22:30N 45°04' E 020°21'0 0.0
2017-Oct-18 22:00N 45°04' E 020°21'0 0.0
2017-Oct-18 21:30N 45°04' E 020°21'0 0.0
2017-Oct-18 21:00N 45°04' E 020°21'0 0.0
2017-Oct-18 20:30N 45°04' E 020°21'0 0.0
2017-Oct-18 20:00N 45°04' E 020°21'0 0.0
2017-Oct-18 19:30N 45°04' E 020°21'0 0.0
2017-Oct-18 19:00N 45°04' E 020°21'1 1.0
2017-Oct-18 18:30N 45°03' E 020°21'2 3.2
2017-Oct-18 18:00N 45°02' E 020°22'1 2.8
2017-Oct-18 17:30N 45°00' E 020°21'1 2.8
2017-Oct-18 17:00N 44°60' E 020°20'2 3.1
2017-Oct-18 16:30N 44°59' E 020°18'1 3.0
2017-Oct-18 16:00N 44°58' E 020°17'2 3.2
2017-Oct-18 15:31N 44°56' E 020°18'2 3.2
2017-Oct-18 15:00N 44°55' E 020°20'3 3.3
2017-Oct-18 14:00N 44°52' E 020°22'1 2.8
2017-Oct-18 13:30N 44°51' E 020°24'2 3.1
2017-Oct-18 13:00N 44°51' E 020°26'1 2.5
2017-Oct-18 12:30N 44°50' E 020°27'1 2.2
2017-Oct-18 12:00N 44°50' E 020°29'2 3.8
2017-Oct-18 11:30N 44°50' E 020°32'2 3.9
2017-Oct-18 11:00N 44°51' E 020°34'2 3.8
2017-Oct-18 10:30N 44°51' E 020°37'2 3.8
2017-Oct-18 10:00N 44°50' E 020°39'2 3.8
2017-Oct-18 09:30N 44°48' E 020°38'2 4.1
2017-Oct-18 09:00N 44°46' E 020°38'2 4.0
2017-Oct-18 08:30N 44°45' E 020°39'3 4.3
2017-Oct-18 07:47N 44°42' E 020°42'6 4.1
2017-Oct-18 06:16N 44°39' E 020°50'1 4.5
2017-Oct-18 06:00N 44°40' E 020°52'3 4.4
2017-Oct-18 05:18N 44°41' E 020°56'3 1.2
2017-Oct-18 03:07N 44°42' E 020°59'0 0.0
2017-Oct-18 02:18N 44°42' E 020°59'0 0.0
2017-Oct-18 01:22N 44°42' E 020°59'0 0.0
2017-Oct-18 00:55N 44°42' E 020°59'0 0.0
2017-Oct-18 00:27N 44°42' E 020°59'0 0.1
2017-Oct-17 23:57N 44°42' E 020°59'1 2.9
2017-Oct-17 23:30N 44°43' E 021°00'1 2.7
2017-Oct-17 23:01N 44°43' E 021°02'7 4.0
2017-Oct-17 21:23N 44°46' E 021°11'2 4.1
2017-Oct-17 21:01N 44°46' E 021°12'2 3.7
2017-Oct-17 20:30N 44°47' E 021°15'6 3.8
2017-Oct-17 18:53N 44°48' E 021°23'2 4.1
2017-Oct-17 18:30N 44°47' E 021°24'2 3.9
2017-Oct-17 18:01N 44°46' E 021°27'2 3.9
2017-Oct-17 17:31N 44°46' E 021°29'1 1.4
2017-Oct-17 16:46N 44°46' E 021°31'0 0.4
2017-Oct-17 16:30N 44°46' E 021°31'0 0.0
2017-Oct-17 13:21N 44°46' E 021°31'0 0.2
2017-Oct-17 12:46N 44°46' E 021°31'0 0.3
2017-Oct-17 12:30N 44°46' E 021°31'0 0.0
2017-Oct-17 10:01N 44°46' E 021°31'0 0.0
2017-Oct-17 09:41N 44°46' E 021°31'0 0.0
2017-Oct-17 09:29N 44°46' E 021°31'0 0.2
2017-Oct-17 09:00N 44°46' E 021°31'0 0.2
2017-Oct-17 08:30N 44°46' E 021°31'0 0.0
2017-Oct-17 07:17N 44°46' E 021°31'0 0.3
2017-Oct-17 06:57N 44°46' E 021°31'0 0.0
2017-Oct-17 06:30N 44°46' E 021°31'0 0.0
2017-Oct-17 06:00N 44°46' E 021°31'0 0.0
2017-Oct-17 04:42N 44°46' E 021°31'0 0.0
2017-Oct-17 04:25N 44°46' E 021°31'0 0.0
2017-Oct-17 04:01N 44°46' E 021°31'0 0.0
2017-Oct-17 03:16N 44°46' E 021°31'0 0.0
2017-Oct-17 03:00N 44°46' E 021°31'0 0.0
2017-Oct-17 02:29N 44°46' E 021°31'0 0.0
2017-Oct-17 01:50N 44°46' E 021°31'0 0.0
2017-Oct-17 01:29N 44°46' E 021°31'0 0.0
2017-Oct-17 00:55N 44°46' E 021°31'0 0.0
2017-Oct-17 00:18N 44°46' E 021°31'0 0.0
2017-Oct-16 23:52N 44°46' E 021°31'0 0.0
2017-Oct-16 23:31N 44°46' E 021°31'0 0.0
2017-Oct-16 23:00N 44°46' E 021°31'0 0.0
2017-Oct-16 22:26N 44°46' E 021°31'0 0.0
2017-Oct-16 22:00N 44°46' E 021°31'0 0.0
2017-Oct-16 21:28N 44°46' E 021°31'0 0.0
2017-Oct-16 21:00N 44°46' E 021°31'0 0.0
2017-Oct-16 20:27N 44°46' E 021°31'0 0.0
2017-Oct-16 19:57N 44°46' E 021°31'0 0.0
2017-Oct-16 19:28N 44°46' E 021°31'0 0.0
2017-Oct-16 18:20N 44°46' E 021°31'0 0.0
2017-Oct-16 15:53N 44°46' E 021°31'0 0.0
2017-Oct-16 14:12N 44°46' E 021°31'0 0.0
2017-Oct-16 11:29N 44°46' E 021°31'1 3.1
2017-Oct-16 11:01N 44°46' E 021°33'3 5.1
2017-Oct-16 10:30N 44°45' E 021°36'3 4.9
2017-Oct-16 09:54N 44°42' E 021°38'1 3.0
2017-Oct-16 09:27N 44°41' E 021°40'1 2.0
2017-Oct-16 09:00N 44°41' E 021°40'1 1.6
2017-Oct-16 08:29N 44°40' E 021°41'0 0.0
2017-Oct-16 08:01N 44°40' E 021°41'0 0.0
2017-Oct-16 07:29N 44°40' E 021°41'0 0.0
2017-Oct-16 07:01N 44°40' E 021°41'0 0.0
2017-Oct-16 06:29N 44°40' E 021°41'0 0.0
2017-Oct-16 06:01N 44°40' E 021°41'1 1.0
2017-Oct-16 05:29N 44°40' E 021°42'14 0.8
2017-Oct-15 13:16N 44°36' E 022°00'1 3.9
2017-Oct-15 13:00N 44°36' E 022°01'2 4.0
2017-Oct-15 12:30N 44°34' E 022°02'2 4.0
2017-Oct-15 12:00N 44°32' E 022°03'2 4.0
2017-Oct-15 11:30N 44°30' E 022°05'2 4.1
2017-Oct-15 11:00N 44°29' E 022°07'2 4.1
2017-Oct-15 10:30N 44°28' E 022°10'2 3.9
2017-Oct-15 10:00N 44°30' E 022°12'  
Track history (hours):
 
Tides and Currents Weather Stations Pressure Air Temp Water Temp Dewpoint Dewpoint Depression Visibility Wind Speed Wind Dir Waves Ship Positions

Mst-radomir

Last reported at 2017-Oct-19 10:22 UTC. Time now 2017-Oct-20 16:15 UTC.
Position N 45°11' E 020°01'.

Length 187 m; draft 2.2 m.

Type: Cargo ship. MMSI: 267010006.

Date/timePositionNaut miles runAvg speedWind from/ knotsBaromVisibWave heightAir tempDewpointWater temp
2017-Oct-19 10:22N 45°11' E 020°01'4 3.1
2017-Oct-19 09:10N 45°10' E 020°06'0 2.9
2017-Oct-19 09:00N 45°10' E 020°06'2 2.7
2017-Oct-19 08:23N 45°11' E 020°09'1 3.2
2017-Oct-19 08:00N 45°11' E 020°10'1 2.9
2017-Oct-19 07:30N 45°11' E 020°12'1 3.0
2017-Oct-19 07:00N 45°10' E 020°14'2 3.1
2017-Oct-19 06:30N 45°09' E 020°16'2 3.1
2017-Oct-19 05:59N 45°07' E 020°17'2 3.4
2017-Oct-19 05:30N 45°06' E 020°18'2 3.1
2017-Oct-19 05:00N 45°05' E 020°19'1 2.8
2017-Oct-19 04:30N 45°04' E 020°21'0 0.1
2017-Oct-19 04:00N 45°04' E 020°21'0 0.0
2017-Oct-19 03:30N 45°04' E 020°21'0 0.0
2017-Oct-19 03:00N 45°04' E 020°21'0 0.0
2017-Oct-19 02:30N 45°04' E 020°21'0 0.0
2017-Oct-19 02:00N 45°04' E 020°21'0 0.0
2017-Oct-19 01:30N 45°04' E 020°21'0 0.0
2017-Oct-19 01:00N 45°04' E 020°21'0 0.0
2017-Oct-19 00:30N 45°04' E 020°21'0 0.0
2017-Oct-19 00:00N 45°04' E 020°21'0 0.0
2017-Oct-18 23:30N 45°04' E 020°21'0 0.0
2017-Oct-18 23:00N 45°04' E 020°21'0 0.0
2017-Oct-18 22:30N 45°04' E 020°21'0 0.0
2017-Oct-18 22:00N 45°04' E 020°21'0 0.0
2017-Oct-18 21:30N 45°04' E 020°21'0 0.0
2017-Oct-18 21:00N 45°04' E 020°21'0 0.0
2017-Oct-18 20:30N 45°04' E 020°21'0 0.0
2017-Oct-18 20:00N 45°04' E 020°21'0 0.0
2017-Oct-18 19:30N 45°04' E 020°21'0 0.0
2017-Oct-18 19:00N 45°04' E 020°21'1 1.0
2017-Oct-18 18:30N 45°03' E 020°21'2 3.2
2017-Oct-18 18:00N 45°02' E 020°22'1 2.8
2017-Oct-18 17:30N 45°00' E 020°21'1 2.8
2017-Oct-18 17:00N 44°60' E 020°20'2 3.1
2017-Oct-18 16:30N 44°59' E 020°18'1 3.0
2017-Oct-18 16:00N 44°58' E 020°17'2 3.2
2017-Oct-18 15:31N 44°56' E 020°18'2 3.2
2017-Oct-18 15:00N 44°55' E 020°20'3 3.3
2017-Oct-18 14:00N 44°52' E 020°22'1 2.8
2017-Oct-18 13:30N 44°51' E 020°24'2 3.1
2017-Oct-18 13:00N 44°51' E 020°26'1 2.5
2017-Oct-18 12:30N 44°50' E 020°27'1 2.2
2017-Oct-18 12:00N 44°50' E 020°29'2 3.8
2017-Oct-18 11:30N 44°50' E 020°32'2 3.9
2017-Oct-18 11:00N 44°51' E 020°34'2 3.8
2017-Oct-18 10:30N 44°51' E 020°37'2 3.8
2017-Oct-18 10:00N 44°50' E 020°39'2 3.8
2017-Oct-18 09:30N 44°48' E 020°38'2 4.1
2017-Oct-18 09:00N 44°46' E 020°38'2 4.0
2017-Oct-18 08:30N 44°45' E 020°39'3 4.3
2017-Oct-18 07:47N 44°42' E 020°42'6 4.1
2017-Oct-18 06:16N 44°39' E 020°50'1 4.5
2017-Oct-18 06:00N 44°40' E 020°52'3 4.4
2017-Oct-18 05:18N 44°41' E 020°56'3 1.2
2017-Oct-18 03:07N 44°42' E 020°59'0 0.0
2017-Oct-18 02:18N 44°42' E 020°59'0 0.0
2017-Oct-18 01:22N 44°42' E 020°59'0 0.0
2017-Oct-18 00:55N 44°42' E 020°59'0 0.0
2017-Oct-18 00:27N 44°42' E 020°59'0 0.1
2017-Oct-17 23:57N 44°42' E 020°59'1 2.9
2017-Oct-17 23:30N 44°43' E 021°00'1 2.7
2017-Oct-17 23:01N 44°43' E 021°02'7 4.0
2017-Oct-17 21:23N 44°46' E 021°11'2 4.1
2017-Oct-17 21:01N 44°46' E 021°12'2 3.7
2017-Oct-17 20:30N 44°47' E 021°15'6 3.8
2017-Oct-17 18:53N 44°48' E 021°23'2 4.1
2017-Oct-17 18:30N 44°47' E 021°24'2 3.9
2017-Oct-17 18:01N 44°46' E 021°27'2 3.9
2017-Oct-17 17:31N 44°46' E 021°29'1 1.4
2017-Oct-17 16:46N 44°46' E 021°31'0 0.4
2017-Oct-17 16:30N 44°46' E 021°31'0 0.0
2017-Oct-17 13:21N 44°46' E 021°31'0 0.2
2017-Oct-17 12:46N 44°46' E 021°31'0 0.3
2017-Oct-17 12:30N 44°46' E 021°31'0 0.0
2017-Oct-17 10:01N 44°46' E 021°31'0 0.0
2017-Oct-17 09:41N 44°46' E 021°31'0 0.0
2017-Oct-17 09:29N 44°46' E 021°31'0 0.2
2017-Oct-17 09:00N 44°46' E 021°31'0 0.2
2017-Oct-17 08:30N 44°46' E 021°31'0 0.0
2017-Oct-17 07:17N 44°46' E 021°31'0 0.3
2017-Oct-17 06:57N 44°46' E 021°31'0 0.0
2017-Oct-17 06:30N 44°46' E 021°31'0 0.0
2017-Oct-17 06:00N 44°46' E 021°31'0 0.0
2017-Oct-17 04:42N 44°46' E 021°31'0 0.0
2017-Oct-17 04:25N 44°46' E 021°31'0 0.0
2017-Oct-17 04:01N 44°46' E 021°31'0 0.0
2017-Oct-17 03:16N 44°46' E 021°31'0 0.0
2017-Oct-17 03:00N 44°46' E 021°31'0 0.0
2017-Oct-17 02:29N 44°46' E 021°31'0 0.0
2017-Oct-17 01:50N 44°46' E 021°31'0 0.0
2017-Oct-17 01:29N 44°46' E 021°31'0 0.0
2017-Oct-17 00:55N 44°46' E 021°31'0 0.0
2017-Oct-17 00:18N 44°46' E 021°31'0 0.0
2017-Oct-16 23:52N 44°46' E 021°31'0 0.0
2017-Oct-16 23:31N 44°46' E 021°31'0 0.0
2017-Oct-16 23:00N 44°46' E 021°31'0 0.0
2017-Oct-16 22:26N 44°46' E 021°31'0 0.0
2017-Oct-16 22:00N 44°46' E 021°31'0 0.0
2017-Oct-16 21:28N 44°46' E 021°31'0 0.0
2017-Oct-16 21:00N 44°46' E 021°31'0 0.0
2017-Oct-16 20:27N 44°46' E 021°31'0 0.0
2017-Oct-16 19:57N 44°46' E 021°31'0 0.0
2017-Oct-16 19:28N 44°46' E 021°31'0 0.0
2017-Oct-16 18:20N 44°46' E 021°31'0 0.0
2017-Oct-16 15:53N 44°46' E 021°31'0 0.0
2017-Oct-16 14:12N 44°46' E 021°31'0 0.0
2017-Oct-16 11:29N 44°46' E 021°31'1 3.1
2017-Oct-16 11:01N 44°46' E 021°33'3 5.1
2017-Oct-16 10:30N 44°45' E 021°36'3 4.9
2017-Oct-16 09:54N 44°42' E 021°38'1 3.0
2017-Oct-16 09:27N 44°41' E 021°40'1 2.0
2017-Oct-16 09:00N 44°41' E 021°40'1 1.6
2017-Oct-16 08:29N 44°40' E 021°41'0 0.0
2017-Oct-16 08:01N 44°40' E 021°41'0 0.0
2017-Oct-16 07:29N 44°40' E 021°41'0 0.0
2017-Oct-16 07:01N 44°40' E 021°41'0 0.0
2017-Oct-16 06:29N 44°40' E 021°41'0 0.0
2017-Oct-16 06:01N 44°40' E 021°41'1 1.0
2017-Oct-16 05:29N 44°40' E 021°42'14 0.8
2017-Oct-15 13:16N 44°36' E 022°00'1 3.9
2017-Oct-15 13:00N 44°36' E 022°01'2 4.0
2017-Oct-15 12:30N 44°34' E 022°02'2 4.0
2017-Oct-15 12:00N 44°32' E 022°03'2 4.0
2017-Oct-15 11:30N 44°30' E 022°05'2 4.1
2017-Oct-15 11:00N 44°29' E 022°07'2 4.1
2017-Oct-15 10:30N 44°28' E 022°10'2 3.9
2017-Oct-15 10:00N 44°30' E 022°12'  

Dump ship's entire track history